Relevés horaires Grono (Suisse)


Relevés horaires à Grono - Mercredi 05 Sept. 2018
Heure UTC1 Température [°C] Vent [km/h] Hum. [%] Pres.4 [hPa] Visi. [Km] Nébu. [octa] Préc.5 [mm] Cond.
2m. Res. Ros. Dir.2 Vit. Moy. Raf.3
23:00 16.6 16.6 15.7 N 5.6 -- -- 94 1015.5 -- -- -- --
22:00 16.4 16.4 15.6 N 5.6 -- -- 95 1015.8 -- -- -- --
21:00 16.8 16.8 15.8 NNE 3.7 -- 9.3 94 1015.5(1.2/3h) -- -- -- --
20:00 17.8 17.8 16.4 NE 3.7 -- -- 92 1015.1 -- -- -- --
19:00 18.5 18.5 16.7 N 1.9 -- -- 89 977.4 -- -- -- --
18:00 20.1 20.1 17.1 N 0.0 -- 27.8 83 1013.8(0.2/3h) -- -- 0/12h
--
17:00 23.8 23.8 15.8 S 3.7 -- -- 61 1013.1 -- -- -- --
16:00 26.0 26.0 14.8 S 7.4 -- -- 50 1012.7 -- -- -- --
15:00 26.7 26.7 15.2 S 13.0 -- 27.8 49 1012.7(-1.0/3h) -- -- -- --
14:00 26.5 26.5 14.4 SSE 11.1 -- -- 47 1012.9 -- -- -- --
13:00 26.3 26.3 14.9 SSE 13.0 -- -- 50 1013.4 -- -- -- --
12:00 25.7 25.7 14.8 SSE 13.0 -- 20.4 51 1013.8(-1.5/3h) -- -- 0/6h
--
11:00 24.4 24.4 13.9 S 7.4 -- -- 52 1014.6 -- -- -- --
10:00 21.8 21.8 12.8 SSE 5.6 -- -- 57 1015.5 -- -- -- --
09:00 19.0 19.0 14.2 E 1.9 -- 13.0 74 1016.3(-0.7/3h) -- -- -- --
08:00 13.3 13.3 12.0 N 5.6 -- -- 92 1017.4 -- -- -- --
07:00 12.3 12.3 11.6 ENE 1.9 -- -- 95 1018 -- -- -- --
06:00 12.0 12.0 11.3 N 3.7 -- 11.1 95 1018(0.7/3h) -- -- 0/12h
0/24h
--
05:00 12.6 12.6 11.7 N 5.6 -- -- 94 1017.5 -- -- -- --
04:00 12.7 12.3 11.9 N 7.4 -- -- 95 1017.4 -- -- -- --
03:00 12.8 12.8 11.9 N 3.7 -- 11.1 94 1017.2(0.6/3h) -- -- -- --
02:00 13.0 12.6 12.3 N 7.4 -- -- 96 1017.1 -- -- -- --
01:00 13.5 13.5 12.6 NE 1.9 -- -- 94 1016.9 -- -- -- --
00:00 14.3 14.3 13.2 N 5.6 -- 14.8 93 1016.3(0.3/3h) -- -- 0/6h
--

1 Coordinated Universal Time. Actuellement il est 20:00 locale et 18:00 UTC.

2 Le vent souffle depuis la direction indiquée vers la direction oposée.

3 Les rafales max. sont disponible 40 min après l'heure du relevé.

4 Pour les stations d'altitude (plus de 600m) le géopotentiel du niveau le plus proche de la pression obligatoire est indiqué.

5 Les stations disposant d'un diffuseur peuvent indiquer "trace". Cela signifie que des précipitations ont touchés le sol mais que la quantité est inférieure à 0.1 mm.

Récapitulatif de la journée
Température [°C] Vent [km/h] Ensoleillement4 [h] Precipitations totale5 [mm] Pression [Hpa]
Min1 Max.2 Moy.3 Max. Min Max.
12.3 26.9 0 27.8 8 h 0 min 0 977.4 1018.0

1 Température minimale relevée entre 18:00 UTC la veille et 18:00 UTC le jour donné.

2 Température maximale relevée entre 06:00 UTC le jour donné et 06:00 UTC le lendemain.

3 Vent moyen de la journée basé sur les relevés horaires.

4 Ensoleillement en heures relevé entre 06:00 UTC la veille et 06:00 UTC le jour donné.

5 Précipitations totales tombées entre 06:00 UTC la jour donné et 06:00 UTC le lendemain.

Graphiques horaires